Terminal Aerodrome Forecast
Issued by NWS Burlington, VT

Current Version | Previous Version | Text Only | Print | Product List | Glossary On
Versions: 1 2 3 4 5 6 7 8 9 10 11 12 13 14
000 FTUS41 KBTV 182340 TAFBTV TAF KBTV 182340Z 1900/1924 VRB04KT P6SM SKC FM191100 18009G18KT P6SM SKC FM191500 19015G25KT P6SM FEW250 FM192200 22010G20KT P6SM FEW080 SCT150=

USA.gov is the U.S. government's official web portal to all federal, state and local government web resources and services.